Latest Weather Observations for Spring Bay

IDT60801

Issued at 1:31 pm EST Tuesday 28 June 2016 (issued every 30 minutes, with the page automatically refreshed every 10 minutes)

About weather observations | Map of weather stations | Latest weather observations for TAS | Other Formats
Station Details ID: 092133 Name: SPRING BAY NTC AWS Lat: -42.55 Lon: 147.93 Height: 0.0 m
Data from the previous 72 hours. | See also: Recent months for locations in Tasmania
Date/Time
EST
Temp
°C
App
Temp
°C
Dew
Point
°C
Rel
Hum
%
Delta-T
°C
Wind Press
QNH
hPa
Press
MSL
hPa
Rain since
9am
mm
Dir  Spd
km/h
Gust
km/h
Spd
kts
Gust
kts
28/01:30pm 13.4 - - - - - - - - - 1013.2 1013.2 -
28/01:00pm 13.4 - - - - - - - - - 1013.2 1013.2 -
28/12:30pm 13.0 - - - - - - - - - 1013.1 1013.1 -
28/12:00pm 13.1 - - - - - - - - - 1013.3 1013.3 -
28/11:30am 12.2 - - - - - - - - - 1013.5 1013.5 -
28/11:00am 11.9 - - - - - - - - - 1013.7 1013.7 -
28/10:30am 11.5 - - - - - - - - - 1013.7 1013.7 -
28/10:00am 11.2 - - - - - - - - - 1013.7 1013.7 -
28/09:30am 10.9 - - - - - - - - - 1013.4 1013.4 -
28/09:00am 10.7 - - - - - - - - - 1013.2 1013.2 -
28/08:30am 10.3 - - - - - - - - - 1012.9 1012.9 -
28/08:00am 9.6 - - - - - - - - - 1013.0 1013.0 -
28/07:30am 9.8 - - - - - - - - - 1012.7 1012.7 -
28/07:00am 9.2 - - - - - - - - - 1012.4 1012.4 -
28/06:30am 9.0 - - - - - - - - - 1012.2 1012.2 -
28/06:00am 10.0 - - - - - - - - - 1011.8 1011.8 -
28/05:30am 9.2 - - - - - - - - - 1011.6 1011.6 -
28/05:00am 9.8 - - - - - - - - - 1011.3 1011.3 -
28/04:30am 8.5 - - - - - - - - - 1011.4 1011.4 -
28/04:00am 9.0 - - - - - - - - - 1011.4 1011.4 -
28/03:30am 9.3 - - - - - - - - - 1011.3 1011.3 -
28/03:00am 8.2 - - - - - - - - - 1011.7 1011.7 -
28/02:30am 9.4 - - - - - - - - - 1011.7 1011.7 -
28/02:00am 9.2 - - - - - - - - - 1011.6 1011.6 -
28/01:30am 9.1 - - - - - - - - - 1011.5 1011.5 -
28/01:00am 9.2 - - - - - - - - - 1011.5 1011.5 -
28/12:30am 9.2 - - - - - - - - - 1011.5 1011.5 -
28/12:00am 9.2 - - - - - - - - - 1011.5 1011.5 -
 
Date/Time
EST
Temp
°C
App
Temp
°C
Dew
Point
°C
Rel
Hum
%
Delta-T
°C
Wind Press
QNH
hPa
Press
MSL
hPa
Rain since
9am
mm
Dir  Spd
km/h
Gust
km/h
Spd
kts
Gust
kts
27/11:30pm 9.5 - - - - - - - - - 1011.8 1011.8 -
27/11:00pm 10.1 - - - - - - - - - 1011.9 1011.9 -
27/10:30pm 9.2 - - - - - - - - - 1012.1 1012.1 -
27/10:00pm 8.3 - - - - - - - - - 1012.0 1012.0 -
27/09:30pm 10.4 - - - - - - - - - 1012.1 1012.1 -
27/09:00pm 9.8 - - - - - - - - - 1012.4 1012.4 -
27/08:30pm 8.8 - - - - - - - - - 1012.3 1012.3 -
27/08:00pm 9.1 - - - - - - - - - 1012.3 1012.3 -
27/07:30pm 9.8 - - - - - - - - - 1012.3 1012.3 -
27/07:00pm 7.8 - - - - - - - - - 1012.3 1012.3 -
27/06:30pm 8.4 - - - - - - - - - 1012.0 1012.0 -
27/06:00pm 8.2 - - - - - - - - - 1011.7 1011.7 -
27/05:30pm 9.8 - - - - - - - - - 1011.5 1011.5 -
27/05:00pm 10.8 - - - - - - - - - 1011.3 1011.3 -
27/04:30pm 12.0 - - - - - - - - - 1010.8 1010.8 -
27/04:00pm 12.4 - - - - - - - - - 1010.7 1010.7 -
27/03:30pm 12.7 - - - - - - - - - 1010.6 1010.6 -
27/03:00pm 12.8 - - - - - - - - - 1010.6 1010.6 -
27/02:30pm 13.4 - - - - - - - - - 1010.4 1010.4 -
27/02:00pm 12.7 - - - - - - - - - 1010.4 1010.4 -
27/01:30pm 12.6 - - - - - - - - - 1010.4 1010.4 -
27/01:00pm 12.2 - - - - - - - - - 1010.5 1010.5 -
27/12:30pm 12.3 - - - - - - - - - 1010.7 1010.7 -
27/12:00pm 11.7 - - - - - - - - - 1011.1 1011.1 -
27/11:30am 12.4 - - - - - - - - - 1011.5 1011.5 -
27/11:00am 12.4 - - - - - - - - - 1011.7 1011.7 -
27/10:30am 11.0 - - - - - - - - - 1011.8 1011.8 -
27/10:00am 10.4 - - - - - - - - - 1011.8 1011.8 -
27/09:30am 9.2 - - - - - - - - - 1011.8 1011.8 -
27/09:00am 8.8 - - - - - - - - - 1011.6 1011.6 -
27/08:30am 7.3 - - - - - - - - - 1011.5 1011.5 -
27/08:00am 7.4 - - - - - - - - - 1011.3 1011.3 -
27/07:30am 7.7 - - - - - - - - - 1010.8 1010.8 -
27/07:00am 8.1 - - - - - - - - - 1010.6 1010.6 -
27/06:30am 8.5 - - - - - - - - - 1010.3 1010.3 -
27/06:00am 8.5 - - - - - - - - - 1009.9 1009.9 -
27/05:30am 8.7 - - - - - - - - - 1009.4 1009.4 -
27/05:00am 9.2 - - - - - - - - - 1009.1 1009.1 -
27/04:30am 9.3 - - - - - - - - - 1009.2 1009.2 -
27/04:00am 9.0 - - - - - - - - - 1009.2 1009.2 -
27/03:30am 9.0 - - - - - - - - - 1009.3 1009.3 -
27/03:00am 9.4 - - - - - - - - - 1009.2 1009.2 -
27/02:30am 9.3 - - - - - - - - - 1009.2 1009.2 -
27/02:00am 9.6 - - - - - - - - - 1009.1 1009.1 -
27/01:30am 9.8 - - - - - - - - - 1009.1 1009.1 -
27/01:00am 10.2 - - - - - - - - - 1008.9 1008.9 -
27/12:30am 10.5 - - - - - - - - - 1008.7 1008.7 -
27/12:00am 10.3 - - - - - - - - - 1008.8 1008.8 -
 
Date/Time
EST
Temp
°C
App
Temp
°C
Dew
Point
°C
Rel
Hum
%
Delta-T
°C
Wind Press
QNH
hPa
Press
MSL
hPa
Rain since
9am
mm
Dir  Spd
km/h
Gust
km/h
Spd
kts
Gust
kts
26/11:30pm 10.7 - - - - - - - - - 1009.0 1009.0 -
26/11:00pm 10.8 - - - - - - - - - 1009.3 1009.3 -
26/10:30pm 10.8 - - - - - - - - - 1009.3 1009.3 -
26/10:00pm 11.1 - - - - - - - - - 1009.3 1009.3 -
26/09:30pm 11.1 - - - - - - - - - 1009.6 1009.6 -
26/09:00pm 11.1 - - - - - - - - - 1009.7 1009.7 -
26/08:30pm 10.9 - - - - - - - - - 1010.1 1010.1 -
26/08:00pm 10.9 - - - - - - - - - 1010.4 1010.4 -
26/07:30pm 10.9 - - - - - - - - - 1010.5 1010.5 -
26/07:00pm 10.9 - - - - - - - - - 1010.5 1010.5 -
26/06:30pm 10.9 - - - - - - - - - 1010.4 1010.4 -
26/06:00pm 11.0 - - - - - - - - - 1010.5 1010.5 -
26/05:30pm 10.9 - - - - - - - - - 1010.6 1010.6 -
26/05:00pm 11.0 - - - - - - - - - 1010.6 1010.6 -
26/04:30pm 11.1 - - - - - - - - - 1010.6 1010.6 -
26/04:00pm 11.6 - - - - - - - - - 1010.7 1010.7 -
26/03:30pm 11.8 - - - - - - - - - 1010.7 1010.7 -
26/03:00pm 11.7 - - - - - - - - - 1011.1 1011.1 -
26/02:30pm 11.2 - - - - - - - - - 1011.3 1011.3 -
26/02:00pm 11.7 - - - - - - - - - 1011.5 1011.5 -
26/01:30pm 11.7 - - - - - - - - - 1011.7 1011.7 -
26/01:00pm 11.3 - - - - - - - - - 1012.1 1012.1 -
26/12:30pm 10.3 - - - - - - - - - 1012.5 1012.5 -
26/12:00pm 10.0 - - - - - - - - - 1013.2 1013.2 -
26/11:30am 9.4 - - - - - - - - - 1013.6 1013.6 -
26/11:00am 9.9 - - - - - - - - - 1014.3 1014.3 -
26/10:30am 10.3 - - - - - - - - - 1014.7 1014.7 -
26/10:00am 8.4 - - - - - - - - - 1014.9 1014.9 -
26/09:30am 8.8 - - - - - - - - - 1014.8 1014.8 -
26/09:00am 7.2 - - - - - - - - - 1015.1 1015.1 -
26/08:30am 5.2 - - - - - - - - - 1015.0 1015.0 -
26/08:00am 4.7 - - - - - - - - - 1015.1 1015.1 -
26/07:30am 4.7 - - - - - - - - - 1015.2 1015.2 -
26/07:00am 5.0 - - - - - - - - - 1015.2 1015.2 -
26/06:30am 4.8 - - - - - - - - - 1015.0 1015.0 -
26/06:00am 5.0 - - - - - - - - - 1014.9 1014.9 -
26/05:30am 4.0 - - - - - - - - - 1014.8 1014.8 -
26/05:00am 4.0 - - - - - - - - - 1014.8 1014.8 -
26/04:30am 4.0 - - - - - - - - - 1014.8 1014.8 -
26/04:00am 5.0 - - - - - - - - - 1014.8 1014.8 -
26/03:30am 4.7 - - - - - - - - - 1014.9 1014.9 -
26/03:00am 5.0 - - - - - - - - - 1015.1 1015.1 -
26/02:30am 7.5 - - - - - - - - - 1015.2 1015.2 -
26/02:00am 6.4 - - - - - - - - - 1015.3 1015.3 -
26/01:30am 6.3 - - - - - - - - - 1015.3 1015.3 -
26/01:00am 6.2 - - - - - - - - - 1015.4 1015.4 -
26/12:30am 6.3 - - - - - - - - - 1015.6 1015.6 -
26/12:00am 7.5 - - - - - - - - - 1015.6 1015.6 -

Other Formats:

Comma delimited format used in spreadsheet applications
http://www.bom.gov.au/fwo/IDT60801/IDT60801.95987.axf

JavaScript Object Notation format (JSON) in row-major order
http://www.bom.gov.au/fwo/IDT60801/IDT60801.95987.json